sensor_id;sensor_type;location;lat;lon;timestamp;pressure;altitude;pressure_sealevel;temperature;humidity
44001;BME280;29660;42.892;24.710;2023-02-04T00:02:05;96276.66;;;-1.66;100.00
44001;BME280;29660;42.892;24.710;2023-02-04T00:07:07;96786.63;;;1.55;100.00
44001;BME280;29660;42.892;24.710;2023-02-04T00:12:09;96760.94;;;1.57;100.00
44001;BME280;29660;42.892;24.710;2023-02-04T00:17:11;96666.31;;;1.00;100.00
44001;BME280;29660;42.892;24.710;2023-02-04T00:22:13;96690.59;;;1.19;100.00
44001;BME280;29660;42.892;24.710;2023-02-04T00:27:15;96698.44;;;1.31;100.00
44001;BME280;29660;42.892;24.710;2023-02-04T00:32:17;96719.69;;;1.75;100.00
44001;BME280;29660;42.892;24.710;2023-02-04T00:37:20;96685.91;;;1.83;100.00
44001;BME280;29660;42.892;24.710;2023-02-04T00:42:22;96660.28;;;1.74;100.00
44001;BME280;29660;42.892;24.710;2023-02-04T00:47:24;96651.59;;;1.90;100.00
44001;BME280;29660;42.892;24.710;2023-02-04T00:52:30;96632.53;;;1.83;100.00
44001;BME280;29660;42.892;24.710;2023-02-04T00:57:32;96380.47;;;0.36;100.00
44001;BME280;29660;42.892;24.710;2023-02-04T01:02:34;96614.22;;;2.05;100.00
44001;BME280;29660;42.892;24.710;2023-02-04T01:07:36;96385.63;;;0.82;100.00
44001;BME280;29660;42.892;24.710;2023-02-04T01:12:38;96596.47;;;2.17;100.00
44001;BME280;29660;42.892;24.710;2023-02-04T01:17:41;96427.75;;;1.26;100.00
44001;BME280;29660;42.892;24.710;2023-02-04T01:22:43;96492.16;;;1.84;100.00
44001;BME280;29660;42.892;24.710;2023-02-04T01:27:45;96520.34;;;1.88;100.00
44001;BME280;29660;42.892;24.710;2023-02-04T01:32:47;96537.31;;;2.19;100.00
44001;BME280;29660;42.892;24.710;2023-02-04T01:37:49;96290.28;;;0.76;100.00
44001;BME280;29660;42.892;24.710;2023-02-04T01:42:51;96461.41;;;2.06;100.00
44001;BME280;29660;42.892;24.710;2023-02-04T01:47:53;96484.69;;;2.19;100.00
44001;BME280;29660;42.892;24.710;2023-02-04T01:52:55;96450.31;;;2.26;100.00
44001;BME280;29660;42.892;24.710;2023-02-04T01:57:58;96251.50;;;1.00;100.00
44001;BME280;29660;42.892;24.710;2023-02-04T02:03:02;96482.81;;;2.37;100.00
44001;BME280;29660;42.892;24.710;2023-02-04T02:08:09;96431.38;;;2.24;100.00
44001;BME280;29660;42.892;24.710;2023-02-04T02:13:14;96489.81;;;2.53;100.00
44001;BME280;29660;42.892;24.710;2023-02-04T02:18:19;96511.66;;;2.54;100.00
44001;BME280;29660;42.892;24.710;2023-02-04T02:23:46;96495.69;;;2.60;100.00
44001;BME280;29660;42.892;24.710;2023-02-04T02:28:49;96321.78;;;1.37;100.00
44001;BME280;29660;42.892;24.710;2023-02-04T02:33:53;96425.19;;;1.91;100.00
44001;BME280;29660;42.892;24.710;2023-02-04T02:38:55;96216.75;;;0.71;100.00
44001;BME280;29660;42.892;24.710;2023-02-04T02:44:01;96397.97;;;1.81;100.00
44001;BME280;29660;42.892;24.710;2023-02-04T02:49:05;96469.00;;;2.25;100.00
44001;BME280;29660;42.892;24.710;2023-02-04T02:54:22;96452.16;;;2.04;100.00
44001;BME280;29660;42.892;24.710;2023-02-04T02:59:28;96472.47;;;2.08;100.00
44001;BME280;29660;42.892;24.710;2023-02-04T03:04:33;96284.47;;;0.74;100.00
44001;BME280;29660;42.892;24.710;2023-02-04T03:09:37;96492.41;;;2.04;100.00
44001;BME280;29660;42.892;24.710;2023-02-04T03:14:39;96319.13;;;0.93;100.00
44001;BME280;29660;42.892;24.710;2023-02-04T03:19:41;96492.72;;;2.08;100.00
44001;BME280;29660;42.892;24.710;2023-02-04T03:24:43;96332.16;;;1.05;100.00
44001;BME280;29660;42.892;24.710;2023-02-04T03:29:46;96222.06;;;0.37;100.00
44001;BME280;29660;42.892;24.710;2023-02-04T03:34:47;96259.03;;;0.74;100.00
44001;BME280;29660;42.892;24.710;2023-02-04T03:39:49;96485.31;;;2.27;100.00
44001;BME280;29660;42.892;24.710;2023-02-04T03:44:53;96226.16;;;0.89;100.00
44001;BME280;29660;42.892;24.710;2023-02-04T03:49:55;96461.38;;;2.55;100.00
44001;BME280;29660;42.892;24.710;2023-02-04T03:54:57;96212.88;;;1.22;100.00
44001;BME280;29660;42.892;24.710;2023-02-04T03:59:59;96222.53;;;1.39;100.00
44001;BME280;29660;42.892;24.710;2023-02-04T04:05:01;96321.53;;;2.09;100.00
44001;BME280;29660;42.892;24.710;2023-02-04T04:10:03;96167.00;;;1.30;100.00
44001;BME280;29660;42.892;24.710;2023-02-04T04:15:06;96356.34;;;2.49;100.00
44001;BME280;29660;42.892;24.710;2023-02-04T04:20:08;96175.72;;;1.36;100.00
44001;BME280;29660;42.892;24.710;2023-02-04T04:25:13;96191.06;;;1.49;100.00
44001;BME280;29660;42.892;24.710;2023-02-04T04:30:15;96163.19;;;1.43;100.00
44001;BME280;29660;42.892;24.710;2023-02-04T04:35:19;96395.47;;;3.04;100.00
44001;BME280;29660;42.892;24.710;2023-02-04T04:40:21;96394.72;;;3.14;100.00
44001;BME280;29660;42.892;24.710;2023-02-04T04:45:23;96140.59;;;1.42;100.00
44001;BME280;29660;42.892;24.710;2023-02-04T04:50:25;96157.22;;;1.53;100.00
44001;BME280;29660;42.892;24.710;2023-02-04T04:55:27;96364.72;;;2.78;100.00
44001;BME280;29660;42.892;24.710;2023-02-04T05:00:38;96142.13;;;1.38;100.00
44001;BME280;29660;42.892;24.710;2023-02-04T05:05:40;96180.97;;;1.63;100.00
44001;BME280;29660;42.892;24.710;2023-02-04T05:10:42;96091.34;;;1.00;100.00
44001;BME280;29660;42.892;24.710;2023-02-04T05:15:44;96386.84;;;2.82;100.00
44001;BME280;29660;42.892;24.710;2023-02-04T05:20:46;96385.75;;;2.73;100.00
44001;BME280;29660;42.892;24.710;2023-02-04T05:25:48;96198.72;;;1.51;100.00
44001;BME280;29660;42.892;24.710;2023-02-04T05:30:52;96433.84;;;2.95;100.00
44001;BME280;29660;42.892;24.710;2023-02-04T05:35:54;96009.13;;;0.18;100.00
44001;BME280;29660;42.892;24.710;2023-02-04T05:40:56;96171.66;;;1.23;100.00
44001;BME280;29660;42.892;24.710;2023-02-04T05:45:58;96407.72;;;2.56;100.00
44001;BME280;29660;42.892;24.710;2023-02-04T05:51:00;96197.13;;;1.22;100.00
44001;BME280;29660;42.892;24.710;2023-02-04T05:56:02;96487.63;;;2.99;100.00
44001;BME280;29660;42.892;24.710;2023-02-04T06:01:04;96222.47;;;1.34;100.00
44001;BME280;29660;42.892;24.710;2023-02-04T06:06:06;96514.97;;;2.98;100.00
44001;BME280;29660;42.892;24.710;2023-02-04T06:11:08;96303.41;;;1.37;100.00
44001;BME280;29660;42.892;24.710;2023-02-04T06:16:12;96448.25;;;2.06;100.00
44001;BME280;29660;42.892;24.710;2023-02-04T06:21:16;96454.75;;;2.20;100.00
44001;BME280;29660;42.892;24.710;2023-02-04T06:26:18;96490.91;;;2.57;100.00
44001;BME280;29660;42.892;24.710;2023-02-04T06:31:20;96409.28;;;2.03;100.00
44001;BME280;29660;42.892;24.710;2023-02-04T06:36:22;96314.22;;;1.40;100.00
44001;BME280;29660;42.892;24.710;2023-02-04T06:41:24;96412.53;;;2.10;100.00
44001;BME280;29660;42.892;24.710;2023-02-04T08:24:00;96386.22;;;2.64;100.00
44001;BME280;29660;42.892;24.710;2023-02-04T08:29:02;96176.84;;;1.45;100.00
44001;BME280;29660;42.892;24.710;2023-02-04T08:34:05;96209.88;;;1.95;100.00
44001;BME280;29660;42.892;24.710;2023-02-04T08:39:07;96184.81;;;2.19;100.00
44001;BME280;29660;42.892;24.710;2023-02-04T08:44:29;96415.94;;;3.82;98.41
44001;BME280;29660;42.892;24.710;2023-02-04T08:49:51;96412.72;;;3.69;99.65
44001;BME280;29660;42.892;24.710;2023-02-04T08:55:13;96431.28;;;4.00;99.14
44001;BME280;29660;42.892;24.710;2023-02-04T09:00:42;96278.72;;;2.99;100.00
44001;BME280;29660;42.892;24.710;2023-02-04T09:06:05;96250.22;;;2.85;100.00
44001;BME280;29660;42.892;24.710;2023-02-04T09:11:28;96439.31;;;4.31;99.13
44001;BME280;29660;42.892;24.710;2023-02-04T09:16:30;96369.47;;;3.76;100.00
44001;BME280;29660;42.892;24.710;2023-02-04T09:21:32;96186.66;;;2.61;99.39
44001;BME280;29660;42.892;24.710;2023-02-04T09:26:34;96453.06;;;4.43;100.00
44001;BME280;29660;42.892;24.710;2023-02-04T09:31:38;96462.56;;;4.44;100.00
44001;BME280;29660;42.892;24.710;2023-02-04T09:36:40;96198.91;;;2.93;100.00
44001;BME280;29660;42.892;24.710;2023-02-04T09:41:42;96402.91;;;4.38;100.00
44001;BME280;29660;42.892;24.710;2023-02-04T09:46:48;96224.91;;;3.52;100.00
44001;BME280;29660;42.892;24.710;2023-02-04T09:52:13;96205.44;;;3.74;100.00
44001;BME280;29660;42.892;24.710;2023-02-04T09:57:37;96183.28;;;3.75;100.00
44001;BME280;29660;42.892;24.710;2023-02-04T10:02:39;96408.22;;;4.94;100.00
44001;BME280;29660;42.892;24.710;2023-02-04T10:07:42;96316.84;;;4.37;100.00
44001;BME280;29660;42.892;24.710;2023-02-04T10:12:46;96398.72;;;5.03;100.00
44001;BME280;29660;42.892;24.710;2023-02-04T10:17:51;96272.22;;;4.35;100.00
44001;BME280;29660;42.892;24.710;2023-02-04T10:22:55;96128.44;;;3.66;100.00
44001;BME280;29660;42.892;24.710;2023-02-04T10:27:58;96278.78;;;4.79;100.00
44001;BME280;29660;42.892;24.710;2023-02-04T10:33:22;96348.00;;;4.81;100.00
44001;BME280;29660;42.892;24.710;2023-02-04T10:38:28;96112.63;;;3.51;100.00
44001;BME280;29660;42.892;24.710;2023-02-04T10:43:31;96344.78;;;5.20;100.00
44001;BME280;29660;42.892;24.710;2023-02-04T10:48:40;96366.19;;;5.23;100.00
44001;BME280;29660;42.892;24.710;2023-02-04T10:53:42;96332.91;;;5.02;100.00
44001;BME280;29660;42.892;24.710;2023-02-04T10:59:03;96255.06;;;4.48;100.00
44001;BME280;29660;42.892;24.710;2023-02-04T11:04:09;96069.38;;;3.32;100.00
44001;BME280;29660;42.892;24.710;2023-02-04T11:09:14;96229.19;;;4.35;100.00
44001;BME280;29660;42.892;24.710;2023-02-04T11:14:28;96325.78;;;5.07;100.00
44001;BME280;29660;42.892;24.710;2023-02-04T11:19:34;96203.53;;;4.56;100.00
44001;BME280;29660;42.892;24.710;2023-02-04T11:24:36;95715.00;;;1.52;100.00
44001;BME280;29660;42.892;24.710;2023-02-04T11:29:39;96063.03;;;3.94;100.00
44001;BME280;29660;42.892;24.710;2023-02-04T11:34:46;96098.84;;;4.21;100.00
44001;BME280;29660;42.892;24.710;2023-02-04T11:39:49;96180.38;;;5.12;88.41
44001;BME280;29660;42.892;24.710;2023-02-04T11:45:01;96295.00;;;6.02;80.17
44001;BME280;29660;42.892;24.710;2023-02-04T11:50:13;96027.50;;;4.96;82.51
44001;BME280;29660;42.892;24.710;2023-02-04T11:55:16;96098.94;;;5.93;79.08
44001;BME280;29660;42.892;24.710;2023-02-04T12:00:32;96032.44;;;5.71;77.14
44001;BME280;29660;42.892;24.710;2023-02-04T12:05:43;96032.03;;;5.58;76.32
44001;BME280;29660;42.892;24.710;2023-02-04T12:10:59;96269.06;;;6.96;75.19
44001;BME280;29660;42.892;24.710;2023-02-04T12:16:04;96206.56;;;6.37;75.18
44001;BME280;29660;42.892;24.710;2023-02-04T12:21:07;96250.75;;;6.71;80.01
44001;BME280;29660;42.892;24.710;2023-02-04T12:26:10;96285.00;;;6.91;82.00
44001;BME280;29660;42.892;24.710;2023-02-04T12:31:12;95755.88;;;3.16;76.40
44001;BME280;29660;42.892;24.710;2023-02-04T12:36:14;96036.47;;;4.95;77.06
44001;BME280;29660;42.892;24.710;2023-02-04T12:41:17;96287.53;;;6.43;77.40
44001;BME280;29660;42.892;24.710;2023-02-04T12:46:20;96206.25;;;5.70;79.27
44001;BME280;29660;42.892;24.710;2023-02-04T12:51:23;95917.47;;;3.77;80.71
44001;BME280;29660;42.892;24.710;2023-02-04T12:56:25;96285.00;;;5.94;83.65
44001;BME280;29660;42.892;24.710;2023-02-04T13:01:27;96299.78;;;5.95;83.78
44001;BME280;29660;42.892;24.710;2023-02-04T13:06:28;96021.63;;;3.89;89.39
44001;BME280;29660;42.892;24.710;2023-02-04T13:11:31;96097.03;;;4.06;89.48
44001;BME280;29660;42.892;24.710;2023-02-04T13:16:33;96231.22;;;4.84;90.19
44001;BME280;29660;42.892;24.710;2023-02-04T13:21:35;96312.53;;;5.23;92.19
44001;BME280;29660;42.892;24.710;2023-02-04T13:26:37;96320.19;;;5.24;91.21
44001;BME280;29660;42.892;24.710;2023-02-04T13:31:39;96322.59;;;5.15;90.74
44001;BME280;29660;42.892;24.710;2023-02-04T13:36:41;96087.81;;;3.37;94.13
44001;BME280;29660;42.892;24.710;2023-02-04T13:41:44;96253.22;;;4.33;97.98
44001;BME280;29660;42.892;24.710;2023-02-04T13:46:46;96108.63;;;3.13;100.00
44001;BME280;29660;42.892;24.710;2023-02-04T13:51:48;96362.00;;;4.66;100.00
44001;BME280;29660;42.892;24.710;2023-02-04T13:56:50;96078.81;;;2.97;100.00
44001;BME280;29660;42.892;24.710;2023-02-04T14:01:52;96121.00;;;3.07;99.32
44001;BME280;29660;42.892;24.710;2023-02-04T14:06:54;96378.09;;;4.59;100.00
44001;BME280;29660;42.892;24.710;2023-02-04T14:11:57;96150.13;;;2.75;100.00
44001;BME280;29660;42.892;24.710;2023-02-04T14:16:58;96404.41;;;4.08;100.00
44001;BME280;29660;42.892;24.710;2023-02-04T14:22:00;96334.06;;;3.61;100.00
44001;BME280;29660;42.892;24.710;2023-02-04T14:27:03;96314.53;;;3.52;100.00
44001;BME280;29660;42.892;24.710;2023-02-04T14:32:07;96165.72;;;2.39;100.00
44001;BME280;29660;42.892;24.710;2023-02-04T14:37:09;96125.22;;;1.93;100.00
44001;BME280;29660;42.892;24.710;2023-02-04T14:42:11;96185.88;;;2.24;100.00
44001;BME280;29660;42.892;24.710;2023-02-04T14:47:13;96251.41;;;2.62;100.00
44001;BME280;29660;42.892;24.710;2023-02-04T14:52:15;96292.84;;;2.82;100.00
44001;BME280;29660;42.892;24.710;2023-02-04T14:57:17;96141.47;;;1.85;100.00
44001;BME280;29660;42.892;24.710;2023-02-04T15:02:19;96162.56;;;1.95;100.00
44001;BME280;29660;42.892;24.710;2023-02-04T15:07:21;96259.19;;;2.47;100.00
44001;BME280;29660;42.892;24.710;2023-02-04T15:12:24;96206.72;;;1.93;100.00
44001;BME280;29660;42.892;24.710;2023-02-04T15:17:26;96398.91;;;3.10;100.00
44001;BME280;29660;42.892;24.710;2023-02-04T15:27:52;96204.19;;;1.76;100.00
44001;BME280;29660;42.892;24.710;2023-02-04T15:38:34;96428.84;;;2.99;100.00
44001;BME280;29660;42.892;24.710;2023-02-04T15:43:36;96494.03;;;3.13;100.00
44001;BME280;29660;42.892;24.710;2023-02-04T15:48:38;96438.53;;;2.88;100.00
44001;BME280;29660;42.892;24.710;2023-02-04T15:53:40;96468.91;;;3.01;100.00
44001;BME280;29660;42.892;24.710;2023-02-04T15:58:42;96247.47;;;1.41;100.00
44001;BME280;29660;42.892;24.710;2023-02-04T16:03:44;96338.25;;;1.98;100.00
44001;BME280;29660;42.892;24.710;2023-02-04T16:08:50;96468.50;;;2.82;100.00
44001;BME280;29660;42.892;24.710;2023-02-04T16:13:52;96450.88;;;2.55;100.00
44001;BME280;29660;42.892;24.710;2023-02-04T16:18:54;96284.53;;;1.40;100.00
44001;BME280;29660;42.892;24.710;2023-02-04T16:23:56;96307.69;;;1.43;100.00
44001;BME280;29660;42.892;24.710;2023-02-04T16:28:58;96567.91;;;2.69;100.00
44001;BME280;29660;42.892;24.710;2023-02-04T16:34:00;96368.28;;;1.36;100.00
44001;BME280;29660;42.892;24.710;2023-02-04T16:39:03;96276.09;;;0.55;100.00
44001;BME280;29660;42.892;24.710;2023-02-04T16:44:07;96340.94;;;0.77;100.00
44001;BME280;29660;42.892;24.710;2023-02-04T16:49:09;96354.94;;;0.65;100.00
44001;BME280;29660;42.892;24.710;2023-02-04T16:54:11;96437.78;;;1.29;100.00
44001;BME280;29660;42.892;24.710;2023-02-04T16:59:14;96486.66;;;1.46;100.00
44001;BME280;29660;42.892;24.710;2023-02-04T17:04:16;96613.50;;;2.31;100.00
44001;BME280;29660;42.892;24.710;2023-02-04T17:09:19;96573.72;;;2.06;100.00
44001;BME280;29660;42.892;24.710;2023-02-04T17:14:21;96384.69;;;0.88;100.00
44001;BME280;29660;42.892;24.710;2023-02-04T17:19:25;96382.75;;;0.66;100.00
44001;BME280;29660;42.892;24.710;2023-02-04T17:24:27;96653.78;;;2.54;100.00
44001;BME280;29660;42.892;24.710;2023-02-04T17:29:29;96331.41;;;0.37;100.00
44001;BME280;29660;42.892;24.710;2023-02-04T17:34:31;96634.09;;;2.17;100.00
44001;BME280;29660;42.892;24.710;2023-02-04T17:39:33;96418.56;;;0.72;100.00
44001;BME280;29660;42.892;24.710;2023-02-04T17:44:35;96568.03;;;1.58;100.00
44001;BME280;29660;42.892;24.710;2023-02-04T17:49:37;96668.22;;;2.29;100.00
44001;BME280;29660;42.892;24.710;2023-02-04T17:54:39;96629.03;;;1.94;100.00
44001;BME280;29660;42.892;24.710;2023-02-04T17:59:44;96556.13;;;1.72;100.00
44001;BME280;29660;42.892;24.710;2023-02-04T18:04:46;96587.41;;;2.08;100.00
44001;BME280;29660;42.892;24.710;2023-02-04T18:09:48;96630.28;;;2.25;100.00
44001;BME280;29660;42.892;24.710;2023-02-04T18:14:50;96621.16;;;2.33;100.00
44001;BME280;29660;42.892;24.710;2023-02-04T18:19:52;96658.53;;;2.35;100.00
44001;BME280;29660;42.892;24.710;2023-02-04T18:24:54;96644.91;;;2.38;100.00
44001;BME280;29660;42.892;24.710;2023-02-04T18:29:56;96579.31;;;1.76;100.00
44001;BME280;29660;42.892;24.710;2023-02-04T18:35:02;96444.09;;;0.94;100.00
44001;BME280;29660;42.892;24.710;2023-02-04T18:40:26;96427.66;;;0.98;100.00
44001;BME280;29660;42.892;24.710;2023-02-04T18:45:30;96656.38;;;2.49;100.00
44001;BME280;29660;42.892;24.710;2023-02-04T18:50:33;96424.38;;;0.91;100.00
44001;BME280;29660;42.892;24.710;2023-02-04T18:55:46;96440.34;;;0.90;100.00
44001;BME280;29660;42.892;24.710;2023-02-04T19:00:51;96662.44;;;2.49;100.00
44001;BME280;29660;42.892;24.710;2023-02-04T19:05:56;96712.38;;;2.44;100.00
44001;BME280;29660;42.892;24.710;2023-02-04T19:10:59;96693.66;;;2.62;100.00
44001;BME280;29660;42.892;24.710;2023-02-04T19:16:24;96710.56;;;2.66;100.00
44001;BME280;29660;42.892;24.710;2023-02-04T19:21:29;96441.25;;;0.95;100.00
44001;BME280;29660;42.892;24.710;2023-02-04T19:26:39;96468.63;;;1.00;100.00
44001;BME280;29660;42.892;24.710;2023-02-04T19:31:42;96592.72;;;1.57;100.00
44001;BME280;29660;42.892;24.710;2023-02-04T19:36:44;96482.81;;;0.70;100.00
44001;BME280;29660;42.892;24.710;2023-02-04T19:41:49;96776.88;;;2.30;100.00
44001;BME280;29660;42.892;24.710;2023-02-04T19:46:51;96765.16;;;2.37;100.00
44001;BME280;29660;42.892;24.710;2023-02-04T19:51:56;96547.91;;;0.85;100.00
44001;BME280;29660;42.892;24.710;2023-02-04T19:56:59;96656.38;;;1.31;100.00
44001;BME280;29660;42.892;24.710;2023-02-04T20:07:21;96722.34;;;1.46;100.00
44001;BME280;29660;42.892;24.710;2023-02-04T20:12:25;96809.44;;;1.95;100.00
44001;BME280;29660;42.892;24.710;2023-02-04T20:17:38;96536.84;;;0.14;100.00
44001;BME280;29660;42.892;24.710;2023-02-04T20:22:46;96838.53;;;1.77;100.00
44001;BME280;29660;42.892;24.710;2023-02-04T20:27:53;96350.25;;;-1.39;100.00
44001;BME280;29660;42.892;24.710;2023-02-04T20:33:12;96821.13;;;1.59;100.00
44001;BME280;29660;42.892;24.710;2023-02-04T20:38:19;96603.78;;;0.16;100.00
44001;BME280;29660;42.892;24.710;2023-02-04T20:43:21;96516.84;;;-0.39;100.00
44001;BME280;29660;42.892;24.710;2023-02-04T20:48:31;96548.06;;;-0.14;100.00
44001;BME280;29660;42.892;24.710;2023-02-04T20:53:53;96760.41;;;1.03;100.00
44001;BME280;29660;42.892;24.710;2023-02-04T21:04:23;96862.63;;;1.45;100.00
44001;BME280;29660;42.892;24.710;2023-02-04T21:09:29;96857.38;;;1.45;100.00
44001;BME280;29660;42.892;24.710;2023-02-04T21:14:32;96854.13;;;1.26;100.00
44001;BME280;29660;42.892;24.710;2023-02-04T21:19:36;96869.88;;;1.26;100.00
44001;BME280;29660;42.892;24.710;2023-02-04T21:24:38;96890.06;;;1.02;100.00
44001;BME280;29660;42.892;24.710;2023-02-04T21:29:40;96604.66;;;-0.60;100.00
44001;BME280;29660;42.892;24.710;2023-02-04T21:34:42;96602.88;;;-0.90;100.00
44001;BME280;29660;42.892;24.710;2023-02-04T21:39:43;96678.38;;;-0.33;100.00
44001;BME280;29660;42.892;24.710;2023-02-04T21:44:45;96768.84;;;0.23;100.00
44001;BME280;29660;42.892;24.710;2023-02-04T21:49:47;96755.03;;;-0.08;100.00
44001;BME280;29660;42.892;24.710;2023-02-04T21:54:49;96662.25;;;-0.60;100.00
44001;BME280;29660;42.892;24.710;2023-02-04T21:59:51;96899.41;;;0.74;100.00
44001;BME280;29660;42.892;24.710;2023-02-04T22:04:55;96907.19;;;0.69;100.00
44001;BME280;29660;42.892;24.710;2023-02-04T22:09:57;96648.25;;;-0.96;100.00
44001;BME280;29660;42.892;24.710;2023-02-04T22:14:59;96668.31;;;-0.90;100.00
44001;BME280;29660;42.892;24.710;2023-02-04T22:20:17;96706.75;;;-0.72;100.00
44001;BME280;29660;42.892;24.710;2023-02-04T22:25:20;96655.22;;;-1.20;100.00
44001;BME280;29660;42.892;24.710;2023-02-04T22:30:22;96438.84;;;-2.77;100.00
44001;BME280;29660;42.892;24.710;2023-02-04T22:35:24;96666.50;;;-1.56;100.00
44001;BME280;29660;42.892;24.710;2023-02-04T22:40:27;96723.91;;;-1.25;100.00
44001;BME280;29660;42.892;24.710;2023-02-04T22:45:29;96614.75;;;-2.09;100.00
44001;BME280;29660;42.892;24.710;2023-02-04T22:50:32;96865.94;;;-0.44;100.00
44001;BME280;29660;42.892;24.710;2023-02-04T22:55:34;96960.28;;;-0.07;100.00
44001;BME280;29660;42.892;24.710;2023-02-04T23:00:36;96947.19;;;-0.26;100.00
44001;BME280;29660;42.892;24.710;2023-02-04T23:05:38;96662.78;;;-2.10;100.00
44001;BME280;29660;42.892;24.710;2023-02-04T23:10:40;96749.47;;;-1.45;100.00
44001;BME280;29660;42.892;24.710;2023-02-04T23:15:42;96880.72;;;-0.68;100.00
44001;BME280;29660;42.892;24.710;2023-02-04T23:20:51;96947.81;;;-0.48;100.00
44001;BME280;29660;42.892;24.710;2023-02-04T23:25:53;96834.22;;;-1.28;100.00
44001;BME280;29660;42.892;24.710;2023-02-04T23:30:55;96678.97;;;-2.20;100.00
44001;BME280;29660;42.892;24.710;2023-02-04T23:35:57;96682.94;;;-2.17;100.00
44001;BME280;29660;42.892;24.710;2023-02-04T23:40:59;96723.78;;;-1.98;100.00
44001;BME280;29660;42.892;24.710;2023-02-04T23:46:04;96643.94;;;-2.62;100.00
44001;BME280;29660;42.892;24.710;2023-02-04T23:51:06;96999.09;;;-0.59;100.00
44001;BME280;29660;42.892;24.710;2023-02-04T23:56:08;96718.34;;;-2.22;100.00
